Alicia — SF2843 — position and weather

sailwx.info

Track history (hours):
 
Tides and Currents Weather Stations Pressure Air Temp Water Temp Dewpoint Dewpoint Depression Visibility Wind Speed Wind Dir Waves Ship Positions

Alicia

Last reported at 2018-Jan-18 14:47 UTC. Time now 2018-Feb-19 14:14 UTC.
Position N 14°19' W 060°55'.
Warning: this ship's position is 31 days out of date.

Length 13 m.

Type: Pleasure craft. MMSI: 265782260.

Date/timePositionNaut miles runAvg speedWind from/ knotsBaromVisibWave heightAir tempDewpointWater temp
2018-Jan-18 14:47N 14°19' W 060°55'2 6.1
2018-Jan-18 14:28N 14°21' W 060°55'3 5.9
2018-Jan-18 14:00N 14°24' W 060°54'2 4.5
2018-Jan-18 13:29N 14°26' W 060°54'2 3.9
2018-Jan-18 13:00N 14°27' W 060°53'1 1.8
2018-Jan-18 12:28N 14°28' W 060°52'2 3.4
2018-Jan-18 12:00N 14°27' W 060°53'  
2018-Jan-12 14:58N 14°28' W 060°52'2 4.4
2018-Jan-12 14:30N 14°27' W 060°54'2 4.6
2018-Jan-12 14:00N 14°27' W 060°56'2 4.1
2018-Jan-12 13:29N 14°27' W 060°59'  
Track history (hours):
 
Tides and Currents Weather Stations Pressure Air Temp Water Temp Dewpoint Dewpoint Depression Visibility Wind Speed Wind Dir Waves Ship Positions

Alicia

Last reported at 2018-Jan-18 14:47 UTC. Time now 2018-Feb-19 14:14 UTC.
Position N 14°19' W 060°55'.
Warning: this ship's position is 31 days out of date.

Length 13 m.

Type: Pleasure craft. MMSI: 265782260.

Date/timePositionNaut miles runAvg speedWind from/ knotsBaromVisibWave heightAir tempDewpointWater temp
2018-Jan-18 14:47N 14°19' W 060°55'2 6.1
2018-Jan-18 14:28N 14°21' W 060°55'3 5.9
2018-Jan-18 14:00N 14°24' W 060°54'2 4.5
2018-Jan-18 13:29N 14°26' W 060°54'2 3.9
2018-Jan-18 13:00N 14°27' W 060°53'1 1.8
2018-Jan-18 12:28N 14°28' W 060°52'2 3.4
2018-Jan-18 12:00N 14°27' W 060°53'  
2018-Jan-12 14:58N 14°28' W 060°52'2 4.4
2018-Jan-12 14:30N 14°27' W 060°54'2 4.6
2018-Jan-12 14:00N 14°27' W 060°56'2 4.1
2018-Jan-12 13:29N 14°27' W 060°59'  

Dump ship's entire track history